Flight Track Log - Related Links

Times and Time Zones

All times are in EDT time to prevent confusion due to time zone crossing. See the SWA276 flight status page for this flight to view local times or setup timezone preferences in your user account.

Time Position Orientation Groundspeed Altitude Reporting Facility
EDT Latitude Longitude Course Direction KTS MPH feet Rate Location/Type
Mon 02:04:21 PM 33.9500 -118.4667 90° East 182 209 1,600  Level Southern California TRACON
Mon 02:05:21 PM 33.9000 -118.5000 209° Southwest 233 268 3,500 2,300 Climbing Southern California TRACON
Mon 02:06:21 PM 33.8167 -118.5000 180° South 288 331 6,200 3,238 Climbing Southern California TRACON
Mon 02:07:27 PM 33.7333 -118.5167 189° South 301 346 10,300 3,338 Climbing Southern California TRACON
Mon 02:08:00 PM 33.6334 -117.2875 90° East  Level FlightAware Approximate
Mon 02:08:52 PM 33.6583 -118.3953 127° Southeast 332 382 14,600  Level Los Angeles Center
Mon 02:09:00 PM 33.6334 -117.1794 90° East  Level FlightAware Approximate
Mon 02:09:55 PM 33.6431 -118.2719 98° East 387 445 15,900  Level Los Angeles Center
Mon 02:10:57 PM 33.6450 -118.1353 89° East 417 480 18,300 2,565 Climbing Los Angeles Center
Mon 02:11:59 PM 33.6444 -117.9628 90° East 431 496 21,200 2,177 Climbing Los Angeles Center
Mon 02:13:01 PM 33.6439 -117.8147 90° East 443 510 22,800 1,065 Climbing Los Angeles Center
Mon 02:14:03 PM 33.6433 -117.6581 90° East 467 537 23,400 912 Climbing Los Angeles Center
Mon 02:15:06 PM 33.6419 -117.4967 91° East 482 555 24,700 1,344 Climbing Los Angeles Center
Mon 02:16:08 PM 33.6408 -117.3300 90° East 497 572 26,200 1,839 Climbing Los Angeles Center
Mon 02:17:10 PM 33.6408 -117.1606 90° East 508 585 28,500 2,177 Climbing Los Angeles Center
Mon 02:18:12 PM 33.6183 -116.9631 98° East 506 582 30,700 1,694 Climbing Los Angeles Center
Mon 02:19:14 PM 33.5981 -116.8106 99° East 502 578 32,000 1,296 Climbing Los Angeles Center
Mon 02:20:17 PM 33.5750 -116.6433 99° East 504 580 33,400 1,488 Climbing Los Angeles Center
Mon 02:21:19 PM 33.5464 -116.4383 99° East 513 590 35,100 1,742 Climbing Los Angeles Center
Mon 02:22:21 PM 33.5228 -116.2714 100° East 512 589 37,000 1,645 Climbing Los Angeles Center
Mon 02:23:23 PM 33.5003 -116.1072 99° East 503 579 38,500 968 Climbing Los Angeles Center
Mon 02:24:25 PM 33.4758 -115.9453 100° East 496 571 39,000 240 Climbing Los Angeles Center
Mon 02:25:28 PM 33.4514 -115.7836 100° East 494 568 39,000  Level Los Angeles Center
Mon 02:26:30 PM 33.4269 -115.6217 100° East 494 568 39,000  Level Los Angeles Center
Mon 02:27:32 PM 33.4031 -115.4617 100° East 492 566 39,000  Level Los Angeles Center
Mon 02:28:34 PM 33.3750 -115.2700 100° East 490 564 39,000  Level Los Angeles Center
Mon 02:29:36 PM 33.3503 -115.1131 101° East 484 557 39,000  Level Los Angeles Center
Mon 02:30:39 PM 33.3272 -114.9553 100° East 484 557 39,000  Level Los Angeles Center
Mon 02:31:41 PM 33.3033 -114.7981 100° East 483 556 39,000  Level Los Angeles Center
Mon 02:33:41 PM 33.2589 -114.4897 100° East 478 550 39,000  Level Albuquerque Center
Mon 02:34:47 PM 33.2258 -114.3017 102° East 475 547 39,000  Level Los Angeles Center
Mon 02:35:50 PM 33.2011 -114.1464 101° East 475 547 39,000  Level Los Angeles Center
Mon 02:36:52 PM 33.1761 -113.9894 101° East 478 550 39,000 -194 Level Los Angeles Center
Mon 02:37:54 PM 33.1514 -113.8328 101° East 480 552 38,600 -629 Descending Los Angeles Center
Mon 02:38:56 PM 33.1261 -113.6747 101° East 485 558 37,700 -1,016 Descending Los Angeles Center
Mon 02:39:58 PM 33.0939 -113.4850 101° East 486 559 36,500 -966 Descending Los Angeles Center
Mon 02:40:54 PM 33.0878 -113.3564 93° East 487 560 35,800 -864 Descending Albuquerque Center
Mon 02:41:56 PM 33.0836 -113.1825 92° East 489 563 34,800 -976 Descending Albuquerque Center
Mon 02:42:57 PM 33.0822 -113.0311 91° East 489 563 33,800 -1,024 Descending Albuquerque Center
Mon 02:43:59 PM 33.0811 -112.8358 90° East 488 562 32,700 -968 Descending Albuquerque Center
Mon 02:45:01 PM 33.0386 -112.6850 109° East 484 557 31,800 -919 Descending Albuquerque Center
Mon 02:46:03 PM 32.9744 -112.5456 119° Southeast 480 552 30,800 -919 Descending Albuquerque Center
Mon 02:47:05 PM 32.9072 -112.4064 120° Southeast 479 551 29,900 -927 Descending Albuquerque Center
Mon 02:48:06 PM 32.8394 -112.2647 120° Southeast 485 558 28,900 -1,854 Descending Albuquerque Center
Mon 02:49:08 PM 32.7742 -112.1219 119° Southeast 486 559 26,100 -2,565 Descending Albuquerque Center
Mon 02:50:10 PM 32.7100 -111.9878 120° Southeast 484 557 23,600 -2,747 Descending Albuquerque Center
Mon 02:50:31 PM 32.6781 -111.9247 121° Southeast 470 541 22,300 -2,226 Descending Albuquerque Center
Mon 02:51:12 PM 32.6506 -111.8614 117° Southeast 453 521 21,300 -2,066 Descending Albuquerque Center
Mon 02:51:32 PM 32.6186 -111.8011 122° Southeast 438 504 20,200 -2,613 Descending Albuquerque Center
Mon 02:52:14 PM 32.5786 -111.7289 123° Southeast 412 474 18,600 -2,459 Descending Albuquerque Center
Mon 02:52:33 PM 32.5547 -111.6892 126° Southeast 400 460 17,700 -2,710 Descending Albuquerque Center
Mon 02:53:16 PM 32.5217 -111.6222 120° Southeast 391 450 15,800 -2,951 Descending Albuquerque Center
Mon 02:53:34 PM 32.5003 -111.5822 122° Southeast 387 445 14,700 -2,903 Descending Albuquerque Center
Mon 02:54:18 PM 32.4656 -111.5150 121° Southeast 389 448 12,800 -2,900 Descending Albuquerque Center
Mon 02:54:34 PM 32.4436 -111.4761 124° Southeast 380 437 11,800 -2,066 Descending Albuquerque Center
Mon 02:55:19 PM 32.4108 -111.4128 121° Southeast 376 433 10,700 -1,377 Descending Albuquerque Center
Mon 02:55:35 PM 32.3908 -111.3792 125° Southeast 357 411 10,400 -774 Descending Albuquerque Center
Mon 02:56:21 PM 32.3622 -111.3219 121° Southeast 341 392 9,900 -800 Descending Albuquerque Center
Mon 02:56:35 PM 32.3442 -111.2933 127° Southeast 305 351 9,600 -1,258 Descending Albuquerque Center
Mon 02:57:23 PM 32.3197 -111.2447 121° Southeast 295 339 8,600 -1,574 Descending Albuquerque Center
Mon 02:57:36 PM 32.3036 -111.2158 123° Southeast 284 327 8,000 -1,548 Descending Albuquerque Center
Mon 02:58:25 PM 32.2700 -111.1522 122° Southeast 285 328 7,000 -1,377 Descending Albuquerque Center
Mon 02:58:37 PM 32.2611 -111.1392 129° Southeast 282 325 6,600 -1,645 Descending Albuquerque Center
Mon 02:59:27 PM 32.2300 -111.0744 120° Southeast 284 327 5,300 -1,600 Descending Albuquerque Center
Mon 02:59:37 PM 32.2183 -111.0625 139° Southeast 257 296 5,000 -968 Descending Albuquerque Center
Mon 03:00:29 PM 32.1933 -111.0200 125° Southeast 250 288 4,300 -690 Descending Albuquerque Center
Mon 03:01:30 PM 32.1564 -110.9767 135° Southeast 203 234 3,700 -590 Descending Albuquerque Center
Mon 03:03:00 PM 32.1161 -110.9410 128° Southeast  Level Estimated

Login

Don't have an account? Register now (free) for customized features, flight alerts, and more!